Hlavní strana
METAR-TAF:

METAR-TAF

Letiště :

Reschenský průsmyk, Itálie

zeměpisná šířka: 46-50N, zeměpisná délka: 010-30E, výška: 1800 m

Aktuální stav počasí

Zpráva byla vytvořena před 1 hodinou a 6 minutami, v 09:55 UTC
Severoseverovýchodní vítr 5 kt
Teplota 19°C
Vlhkost vzduchu 64%
Tlak 1025 hPa
Viditelnost 10 km a více
Polojasno ve výšce 2500 ft

METAR: LIVE 200955Z 03005KT 9999 SCT025 19/12 Q1025 RMK SCT VIS MIN 9999

Čas: 13:01 (11:01 UTC)


TAF: chybějící

Stav a předpovědi počasí z více než 4 000 letišť (zprávy METAR a TAF).

Červené a žluté tečky na mapě představují dostupné meteorologické stanice.

Když kurzor umístíte na tečku, zobrazí se název stanice.

Pak kliknutím zobrazíte stav a předpověď počasí.

Chcete-li změnit mapu, kliknutím na zelené tlačítko se znaménkem +mapu přiblížíte, kliknutím na zelené tlačítko se znaménkem – mapu oddálíte a kliknutím na zelené šipky přejdete na sousední mapy.


METAR-TAF: